createdAt,value
2019-04-06T00:00:42.811Z,52.88
2019-04-06T00:05:49.041Z,51.88
2019-04-06T00:10:55.187Z,52.75
2019-04-06T00:16:00.130Z,47.50
2019-04-06T00:21:04.688Z,53.00
2019-04-06T00:26:13.488Z,54.00
2019-04-06T00:31:19.786Z,51.88
2019-04-06T00:36:23.660Z,49.00
2019-04-06T00:41:31.511Z,50.38
2019-04-06T00:46:36.336Z,52.50
2019-04-06T00:51:42.533Z,51.25
2019-04-06T00:56:51.756Z,53.50
2019-04-06T01:01:59.498Z,52.25
2019-04-06T01:07:05.542Z,53.00
2019-04-06T01:12:14.001Z,52.00
2019-04-06T01:17:19.899Z,55.25
2019-04-06T01:22:28.481Z,52.38
2019-04-06T01:27:36.374Z,50.88
2019-04-06T01:32:44.904Z,48.38
2019-04-06T01:37:54.246Z,52.00
2019-04-06T01:42:59.257Z,50.75
2019-04-06T01:48:05.134Z,53.00
2019-04-06T01:53:11.152Z,52.50
2019-04-06T01:58:17.391Z,49.00
2019-04-06T02:03:23.502Z,49.75
2019-04-06T02:08:29.534Z,49.50
2019-04-06T02:13:33.155Z,45.00
2019-04-06T02:18:41.170Z,52.57
2019-04-06T02:23:47.226Z,50.88
2019-04-06T02:28:55.860Z,52.67
2019-04-06T02:34:02.127Z,49.63
2019-04-06T02:39:10.078Z,47.00
2019-04-06T02:44:16.259Z,50.63
2019-04-06T02:49:19.826Z,50.00
2019-04-06T02:54:24.241Z,47.00
2019-04-06T02:59:30.431Z,37.38
2019-04-06T03:04:36.522Z,47.62
2019-04-06T03:09:45.239Z,46.50
2019-04-06T03:14:50.423Z,41.25
2019-04-06T03:19:59.123Z,46.25
2019-04-06T03:25:03.129Z,35.33
2019-04-06T03:30:10.391Z,45.63
2019-04-06T03:35:15.367Z,41.00
2019-04-06T03:40:19.563Z,40.75
2019-04-06T03:45:28.282Z,43.63
2019-04-06T03:50:33.440Z,45.00
2019-04-06T03:55:42.654Z,51.67
2019-04-06T04:00:51.014Z,36.25
2019-04-06T04:05:57.483Z,35.71
2019-04-06T04:11:05.477Z,38.56
2019-04-06T04:16:13.747Z,41.33
2019-04-06T04:21:22.697Z,34.88
2019-04-06T04:26:29.925Z,31.00
2019-04-06T04:31:37.177Z,34.38
2019-04-06T04:36:46.162Z,35.13
2019-04-06T04:41:55.995Z,39.44
2019-04-06T04:47:03.316Z,37.00
2019-04-06T04:52:12.088Z,33.63
2019-04-06T04:57:16.612Z,30.25
2019-04-06T05:02:24.640Z,33.63
2019-04-06T05:07:33.418Z,31.75
2019-04-06T05:12:42.218Z,34.88
2019-04-06T05:17:51.136Z,36.13
2019-04-06T05:23:00.046Z,35.13
2019-04-06T05:28:04.109Z,37.00
2019-04-06T05:33:08.275Z,33.00
2019-04-06T05:38:13.933Z,35.50
2019-04-06T05:43:21.390Z,42.62
2019-04-06T05:48:27.126Z,47.00
2019-04-06T05:53:32.964Z,38.86
2019-04-06T05:58:40.371Z,35.75
2019-04-06T06:03:42.653Z,33.00
2019-04-06T06:08:46.689Z,47.00
2019-04-06T06:18:55.502Z,47.00
2019-04-06T06:24:05.642Z,43.87
2019-04-06T06:29:11.439Z,40.50
2019-04-06T06:34:18.389Z,37.25
2019-04-06T06:39:24.893Z,54.67
2019-04-06T06:44:31.041Z,47.25
2019-04-06T06:49:42.114Z,43.78
2019-04-06T06:54:48.542Z,41.75
2019-04-06T06:59:54.407Z,27.86
2019-04-06T07:05:04.315Z,48.87
2019-04-06T07:10:09.010Z,45.67
2019-04-06T07:15:12.832Z,31.00
2019-04-06T07:20:18.541Z,35.14
2019-04-06T07:25:24.818Z,35.88
2019-04-06T07:30:34.752Z,46.11
2019-04-06T07:35:43.027Z,45.33
2019-04-06T07:40:56.243Z,50.12
2019-04-06T07:46:09.792Z,50.68
2019-04-06T07:51:16.386Z,38.13
2019-04-06T07:56:23.820Z,35.25
2019-04-06T08:01:33.104Z,35.83
2019-04-06T08:06:37.251Z,43.75
2019-04-06T08:11:44.919Z,35.00
2019-04-06T08:16:54.017Z,38.88
2019-04-06T08:22:03.121Z,27.00
2019-04-06T08:27:12.343Z,37.50
2019-04-06T08:32:21.420Z,39.00
2019-04-06T08:37:28.090Z,40.22
2019-04-06T08:42:34.166Z,35.63
2019-04-06T08:47:38.651Z,36.00
2019-04-06T08:52:43.194Z,38.50
2019-04-06T08:57:47.307Z,37.50
2019-04-06T09:02:56.547Z,41.75
2019-04-06T09:08:01.068Z,40.50
2019-04-06T09:13:05.649Z,39.50
2019-04-06T09:18:16.596Z,38.58
2019-04-06T09:23:21.267Z,34.33
2019-04-06T09:28:25.551Z,33.00
2019-04-06T09:33:29.784Z,37.00
2019-04-06T09:38:34.126Z,33.50
2019-04-06T09:43:37.651Z,39.00
2019-04-06T09:48:47.739Z,40.00
2019-04-06T09:54:05.661Z,40.75
2019-04-06T09:59:03.003Z,41.75
2019-04-06T10:04:11.044Z,27.86
2019-04-06T10:09:16.282Z,36.50
2019-04-06T10:14:25.090Z,33.89
2019-04-06T10:19:29.402Z,37.25
2019-04-06T10:24:36.310Z,42.67
2019-04-06T10:29:48.889Z,44.50
2019-04-06T10:34:52.451Z,37.63
2019-04-06T10:40:01.103Z,41.88
2019-04-06T10:45:06.328Z,40.50
2019-04-06T10:50:09.989Z,37.33
2019-04-06T10:55:13.672Z,38.67
2019-04-06T11:00:22.375Z,37.13
2019-04-06T11:05:27.523Z,34.50
2019-04-06T11:10:36.318Z,40.63
2019-04-06T11:15:43.083Z,41.00
2019-04-06T11:20:49.869Z,39.00
2019-04-06T11:25:56.063Z,38.75
2019-04-06T11:31:01.046Z,44.50
2019-04-06T11:36:04.790Z,44.33
2019-04-06T11:41:13.382Z,46.50
2019-04-06T11:46:17.348Z,48.50
2019-04-06T11:51:25.378Z,45.75
2019-04-06T11:56:31.761Z,50.75
2019-04-06T12:01:39.774Z,56.37
2019-04-06T12:06:44.436Z,49.25
2019-04-06T12:11:54.258Z,50.44
2019-04-06T12:17:00.849Z,52.25
2019-04-06T12:22:07.365Z,53.25
2019-04-06T12:27:11.705Z,57.00
2019-04-06T12:32:20.435Z,56.37
2019-04-06T12:37:26.727Z,64.00
2019-04-06T12:42:36.087Z,67.50
2019-04-06T12:47:45.508Z,67.75
2019-04-06T12:52:52.721Z,65.50
2019-04-06T12:57:59.022Z,61.63
2019-04-06T13:03:03.703Z,60.00
2019-04-06T13:08:08.324Z,58.00
2019-04-06T13:13:17.709Z,61.00
2019-04-06T13:18:28.589Z,65.89
2019-04-06T13:23:32.944Z,65.83
2019-04-06T13:28:37.728Z,67.00
2019-04-06T13:33:47.448Z,67.89
2019-04-06T13:38:51.516Z,62.00
2019-04-06T13:43:56.202Z,71.00
2019-04-06T13:49:03.489Z,63.29
2019-04-06T13:54:13.367Z,69.44
2019-04-06T13:59:18.684Z,68.50
2019-04-06T14:04:25.911Z,64.25
2019-04-06T14:09:30.441Z,62.50
2019-04-06T14:14:39.186Z,65.87
2019-04-06T14:19:45.293Z,61.25
2019-04-06T14:24:51.510Z,63.75
2019-04-06T14:29:57.950Z,61.75
2019-04-06T14:35:06.036Z,61.67
2019-04-06T14:40:13.310Z,57.38
2019-04-06T14:45:20.166Z,57.00
2019-04-06T14:50:27.380Z,61.00
2019-04-06T14:55:33.561Z,56.00
2019-04-06T15:00:38.745Z,65.43
2019-04-06T15:05:44.226Z,63.00
2019-04-06T15:10:48.679Z,66.50
2019-04-06T15:15:53.319Z,67.00
2019-04-06T15:20:57.869Z,63.00
2019-04-06T15:26:05.132Z,57.88
2019-04-06T15:31:12.243Z,61.00
2019-04-06T15:36:16.638Z,62.00
2019-04-06T15:41:21.220Z,59.25
2019-04-06T15:46:30.965Z,63.63
2019-04-06T15:51:41.058Z,62.67
2019-04-06T15:56:45.733Z,62.00
2019-04-06T16:02:01.414Z,65.25
2019-04-06T16:07:00.911Z,76.50
2019-04-06T16:12:07.943Z,64.12
2019-04-06T16:17:16.720Z,65.11
2019-04-06T16:22:26.955Z,74.11
2019-04-06T16:27:33.329Z,67.87
2019-04-06T16:32:39.896Z,68.37
2019-04-06T16:37:49.324Z,71.20
2019-04-06T16:42:54.052Z,75.25
2019-04-06T16:48:04.892Z,80.11
2019-04-06T16:53:15.053Z,86.00
2019-04-06T16:58:25.092Z,76.67
2019-04-06T17:03:32.907Z,75.00
2019-04-06T17:08:40.186Z,75.22
2019-04-06T17:13:59.334Z,72.87
2019-04-06T17:19:05.952Z,73.67
2019-04-06T17:24:11.274Z,70.33
2019-04-06T17:34:19.340Z,72.40
2019-04-06T17:39:28.917Z,67.67
2019-04-06T17:44:32.251Z,64.67
2019-04-06T17:49:36.984Z,62.00
2019-04-06T17:54:47.625Z,64.67
2019-04-06T17:59:53.223Z,68.25
2019-04-06T18:05:00.236Z,62.75
2019-04-06T18:10:06.186Z,69.86
2019-04-06T18:15:10.911Z,73.00
2019-04-06T18:20:19.845Z,68.86
2019-04-06T18:25:27.038Z,69.37
2019-04-06T18:30:33.083Z,66.12
2019-04-06T18:35:37.626Z,69.50
2019-04-06T18:40:42.528Z,68.50
2019-04-06T18:45:46.909Z,75.33
2019-04-06T18:50:58.613Z,74.57
2019-04-06T18:56:13.683Z,76.00
2019-04-06T19:01:37.471Z,81.21
2019-04-06T19:07:02.771Z,80.42
2019-04-06T19:12:21.805Z,80.21
2019-04-06T19:17:31.884Z,75.64
2019-04-06T19:22:38.747Z,58.13
2019-04-06T19:27:42.428Z,40.00
2019-04-06T19:32:47.226Z,32.67
2019-04-06T19:37:53.024Z,40.86
2019-04-06T19:43:01.072Z,51.67
2019-04-06T19:48:07.332Z,45.00
2019-04-06T19:53:15.908Z,37.36
2019-04-06T19:58:19.189Z,33.00
2019-04-06T20:03:35.088Z,40.67
2019-04-06T20:08:36.257Z,37.14
2019-04-06T20:13:43.574Z,54.89
2019-04-06T20:18:57.095Z,53.71
2019-04-06T20:24:02.770Z,57.00
2019-04-06T20:29:06.435Z,54.00
2019-04-06T20:34:11.894Z,45.00
2019-04-06T20:39:16.997Z,39.83
2019-04-06T20:44:51.922Z,64.20
2019-04-06T20:50:03.866Z,56.29
2019-04-06T20:55:08.944Z,47.00
2019-04-06T21:01:40.515Z,47.97
2019-04-06T21:06:44.747Z,59.33
2019-04-06T21:11:50.153Z,53.00
2019-04-06T21:16:56.703Z,42.38
2019-04-06T21:22:03.441Z,38.00
2019-04-06T21:27:08.612Z,40.25
2019-04-06T21:32:15.591Z,34.50
2019-04-06T21:37:24.262Z,41.25
2019-04-06T21:42:30.489Z,26.29
2019-04-06T21:47:36.458Z,33.50
2019-04-06T21:52:40.630Z,40.75
2019-04-06T21:57:45.582Z,36.50
2019-04-06T22:02:53.775Z,32.25
2019-04-06T22:13:34.006Z,41.00
2019-04-06T22:18:38.669Z,40.57
2019-04-06T22:23:47.402Z,42.38
2019-04-06T22:28:53.773Z,33.75
2019-04-06T22:34:01.976Z,35.00
2019-04-06T22:39:08.700Z,33.71
2019-04-06T22:44:18.848Z,36.09
2019-04-06T22:49:26.047Z,29.12
2019-04-06T22:54:32.284Z,29.50
2019-04-06T22:59:35.467Z,31.50
2019-04-06T23:04:47.791Z,40.00
2019-04-06T23:09:44.262Z,27.75
2019-04-06T23:14:47.916Z,45.00
2019-04-06T23:19:52.339Z,33.25
2019-04-06T23:24:56.588Z,46.80
2019-04-06T23:36:08.916Z,38.67
2019-04-06T23:41:15.420Z,46.13
2019-04-06T23:46:21.338Z,50.14
2019-04-06T23:51:29.579Z,44.13
2019-04-06T23:56:36.764Z,50.88
